PWSweather.com
Personal Weather Stations
Station Observations
IROGLAN40
AalgaardNO 4330

AalgaardNO 4330

Lat: 58.773, Lon: 5.846

Elevation: 326

Station Type: Davis Vanatge Pro2

www.mavahome.com

High Low Average
Temperature 38.5°F3.6°C 33.7°F0.9°C 36.2°F2.3°C
Dew Point 33.5°F0.8°C 25.7°F-3.5°C 30.1°F-1.1°C
Winds 11.5 mph 18.5 kmh Calm Calm 3.0 mph S4.8 kmh S
Wind Gusts 17.3 mph27.8 kmh -- 5.0 mph8.0 kmh
Humidity 90% 65% 79%
Pressure 29.62 in1003.0 mb 29.35 in993.9 mb -
Precipitation 0.09 in2.3 mm - -
Hour Temp Dew Point Humidity Winds Wind Gusts Pressure Precip Precip Rate Daily Precip Total
12:00 AM 36.1°F2.3°C 26.2°F-3.2°C 67% 1.2 mph SE1.9 kmh SE 3.5 mph5.6 kmh 29.62 in1003.0 mb - 0.00 in0.0 mm 0.00 in0.0 mm
12:10 AM 36.2°F2.3°C 25.9°F-3.4°C 66% 2.3 mph SE3.7 kmh SE 3.5 mph5.6 kmh 29.62 in1003.0 mb - 0.00 in0.0 mm 0.00 in0.0 mm
12:20 AM 36.3°F2.4°C 25.7°F-3.5°C 65% 4.6 mph ESE7.4 kmh ESE 5.8 mph9.3 kmh 29.62 in1003.0 mb - 0.00 in0.0 mm 0.00 in0.0 mm
12:30 AM 36.5°F2.5°C 25.8°F-3.4°C 65% 3.5 mph SE5.6 kmh SE 4.6 mph7.4 kmh 29.61 in1002.7 mb - 0.00 in0.0 mm 0.00 in0.0 mm
12:40 AM 36.4°F2.4°C 26.1°F-3.3°C 66% Calm Calm 1.2 mph1.9 kmh 29.61 in1002.7 mb - 0.00 in0.0 mm 0.00 in0.0 mm
12:50 AM 36.1°F2.3°C 25.8°F-3.4°C 66% 2.3 mph SE3.7 kmh SE 4.6 mph7.4 kmh 29.61 in1002.7 mb - 0.00 in0.0 mm 0.00 in0.0 mm
01:00 AM 36.1°F2.3°C 26.2°F-3.2°C 67% 2.3 mph SE3.7 kmh SE 9.2 mph14.8 kmh 29.61 in1002.7 mb - 0.00 in0.0 mm 0.00 in0.0 mm
01:10 AM 36.3°F2.4°C 26.0°F-3.3°C 66% 6.9 mph SSE11.1 kmh SSE 10.4 mph16.7 kmh 29.61 in1002.7 mb - 0.00 in0.0 mm 0.00 in0.0 mm
01:20 AM 36.5°F2.5°C 26.6°F-3.0°C 67% 6.9 mph SE11.1 kmh SE 11.5 mph18.5 kmh 29.60 in1002.4 mb - 0.00 in0.0 mm 0.00 in0.0 mm
01:30 AM 36.3°F2.4°C 26.4°F-3.1°C 67% 4.6 mph SE7.4 kmh SE 11.5 mph18.5 kmh 29.60 in1002.4 mb - 0.00 in0.0 mm 0.00 in0.0 mm
01:40 AM 36.1°F2.3°C 26.2°F-3.2°C 67% 9.2 mph SE14.8 kmh SE 11.5 mph18.5 kmh 29.60 in1002.4 mb - 0.00 in0.0 mm 0.00 in0.0 mm
01:50 AM 36.1°F2.3°C 26.2°F-3.2°C 67% 4.6 mph SE7.4 kmh SE 13.8 mph22.2 kmh 29.59 in1002.0 mb - 0.00 in0.0 mm 0.00 in0.0 mm
02:00 AM 36.1°F2.3°C 26.2°F-3.2°C 67% 6.9 mph SE11.1 kmh SE 9.2 mph14.8 kmh 29.59 in1002.0 mb - 0.00 in0.0 mm 0.00 in0.0 mm
02:10 AM 36.0°F2.2°C 26.5°F-3.1°C 68% 4.6 mph SSE7.4 kmh SSE 9.2 mph14.8 kmh 29.59 in1002.0 mb - 0.00 in0.0 mm 0.00 in0.0 mm
02:20 AM 36.1°F2.3°C 26.2°F-3.2°C 67% 6.9 mph SE11.1 kmh SE 8.1 mph13.0 kmh 29.59 in1002.0 mb - 0.00 in0.0 mm 0.00 in0.0 mm
02:30 AM 36.1°F2.3°C 26.2°F-3.2°C 67% 4.6 mph SSE7.4 kmh SSE 8.1 mph13.0 kmh 29.58 in1001.7 mb - 0.00 in0.0 mm 0.00 in0.0 mm
02:40 AM 36.1°F2.3°C 26.2°F-3.2°C 67% 5.8 mph SE9.3 kmh SE 8.1 mph13.0 kmh 29.58 in1001.7 mb - 0.00 in0.0 mm 0.00 in0.0 mm
02:50 AM 36.2°F2.3°C 26.3°F-3.2°C 67% 3.5 mph SE5.6 kmh SE 3.5 mph5.6 kmh 29.57 in1001.4 mb - 0.00 in0.0 mm 0.00 in0.0 mm
03:00 AM 36.1°F2.3°C 26.2°F-3.2°C 67% 5.8 mph ESE9.3 kmh ESE 10.4 mph16.7 kmh 29.57 in1001.4 mb - 0.00 in0.0 mm 0.00 in0.0 mm
03:10 AM 36.1°F2.3°C 26.2°F-3.2°C 67% 8.1 mph SSE13.0 kmh SSE 11.5 mph18.5 kmh 29.56 in1001.0 mb - 0.00 in0.0 mm 0.00 in0.0 mm
03:20 AM 36.1°F2.3°C 26.6°F-3.0°C 68% 3.5 mph S5.6 kmh S 4.6 mph7.4 kmh 29.56 in1001.0 mb - 0.00 in0.0 mm 0.00 in0.0 mm
03:30 AM 36.0°F2.2°C 26.5°F-3.1°C 68% 8.1 mph S13.0 kmh S 11.5 mph18.5 kmh 29.55 in1000.7 mb - 0.00 in0.0 mm 0.00 in0.0 mm
03:40 AM 35.9°F2.2°C 26.4°F-3.1°C 68% 6.9 mph SE11.1 kmh SE 9.2 mph14.8 kmh 29.55 in1000.7 mb - 0.00 in0.0 mm 0.00 in0.0 mm
03:50 AM 35.9°F2.2°C 26.0°F-3.3°C 67% 8.1 mph SSE13.0 kmh SSE 10.4 mph16.7 kmh 29.54 in1000.3 mb - 0.00 in0.0 mm 0.00 in0.0 mm
04:00 AM 35.9°F2.2°C 26.0°F-3.3°C 67% 9.2 mph SSE14.8 kmh SSE 15.0 mph24.1 kmh 29.54 in1000.3 mb - 0.00 in0.0 mm 0.00 in0.0 mm
04:10 AM 35.8°F2.1°C 25.9°F-3.4°C 67% 8.1 mph SE13.0 kmh SE 12.7 mph20.4 kmh 29.54 in1000.3 mb - 0.00 in0.0 mm 0.00 in0.0 mm
04:20 AM 35.8°F2.1°C 25.9°F-3.4°C 67% 6.9 mph SE11.1 kmh SE 10.4 mph16.7 kmh 29.53 in1000.0 mb - 0.00 in0.0 mm 0.00 in0.0 mm
04:30 AM 35.7°F2.1°C 25.8°F-3.4°C 67% 6.9 mph SE11.1 kmh SE 9.2 mph14.8 kmh 29.53 in1000.0 mb - 0.00 in0.0 mm 0.00 in0.0 mm
04:40 AM 35.8°F2.1°C 25.9°F-3.4°C 67% 6.9 mph SE11.1 kmh SE 10.4 mph16.7 kmh 29.52 in999.7 mb - 0.00 in0.0 mm 0.00 in0.0 mm
04:50 AM 35.9°F2.2°C 26.0°F-3.3°C 67% 8.1 mph SE13.0 kmh SE 10.4 mph16.7 kmh 29.52 in999.7 mb - 0.00 in0.0 mm 0.00 in0.0 mm
05:00 AM 36.1°F2.3°C 26.2°F-3.2°C 67% 6.9 mph SE11.1 kmh SE 11.5 mph18.5 kmh 29.52 in999.7 mb - 0.00 in0.0 mm 0.00 in0.0 mm
05:10 AM 36.1°F2.3°C 26.2°F-3.2°C 67% 6.9 mph SE11.1 kmh SE 8.1 mph13.0 kmh 29.52 in999.7 mb - 0.00 in0.0 mm 0.00 in0.0 mm
05:20 AM 36.2°F2.3°C 26.6°F-3.0°C 68% 9.2 mph SE14.8 kmh SE 11.5 mph18.5 kmh 29.52 in999.7 mb - 0.00 in0.0 mm 0.00 in0.0 mm
05:30 AM 35.5°F1.9°C 27.7°F-2.4°C 73% 10.4 mph SE16.7 kmh SE 15.0 mph24.1 kmh 29.52 in999.7 mb - 0.00 in0.0 mm 0.00 in0.0 mm
05:40 AM 34.4°F1.3°C 27.9°F-2.3°C 77% 6.9 mph SE11.1 kmh SE 10.4 mph16.7 kmh 29.52 in999.7 mb - 0.00 in0.0 mm 0.00 in0.0 mm
05:50 AM 33.9°F1.1°C 28.1°F-2.2°C 79% 8.1 mph SE13.0 kmh SE 11.5 mph18.5 kmh 29.51 in999.3 mb - 0.00 in0.0 mm 0.00 in0.0 mm
06:00 AM 33.9°F1.1°C 28.4°F-2.0°C 80% 9.2 mph SE14.8 kmh SE 11.5 mph18.5 kmh 29.51 in999.3 mb - 0.00 in0.0 mm 0.00 in0.0 mm
06:10 AM 34.3°F1.3°C 28.8°F-1.8°C 80% 9.2 mph SE14.8 kmh SE 17.3 mph27.8 kmh 29.50 in999.0 mb - 0.00 in0.0 mm 0.00 in0.0 mm
06:20 AM 34.8°F1.6°C 29.0°F-1.7°C 79% 6.9 mph SE11.1 kmh SE 10.4 mph16.7 kmh 29.50 in999.0 mb - 0.00 in0.0 mm 0.00 in0.0 mm
06:30 AM 35.1°F1.7°C 28.9°F-1.7°C 78% 4.6 mph SE7.4 kmh SE 6.9 mph11.1 kmh 29.50 in999.0 mb - 0.00 in0.0 mm 0.00 in0.0 mm
06:40 AM 35.3°F1.8°C 28.8°F-1.8°C 77% 5.8 mph SE9.3 kmh SE 8.1 mph13.0 kmh 29.49 in998.6 mb - 0.00 in0.0 mm 0.00 in0.0 mm
06:50 AM 35.5°F1.9°C 29.0°F-1.7°C 77% 6.9 mph SSE11.1 kmh SSE 9.2 mph14.8 kmh 29.49 in998.6 mb - 0.00 in0.0 mm 0.00 in0.0 mm
07:00 AM 35.7°F2.1°C 28.9°F-1.7°C 76% 4.6 mph SSE7.4 kmh SSE 6.9 mph11.1 kmh 29.48 in998.3 mb - 0.00 in0.0 mm 0.00 in0.0 mm
07:10 AM 35.9°F2.2°C 29.1°F-1.6°C 76% 6.9 mph SSE11.1 kmh SSE 11.5 mph18.5 kmh 29.48 in998.3 mb - 0.00 in0.0 mm 0.00 in0.0 mm
07:20 AM 36.0°F2.2°C 28.9°F-1.7°C 75% 4.6 mph SE7.4 kmh SE 9.2 mph14.8 kmh 29.48 in998.3 mb - 0.00 in0.0 mm 0.00 in0.0 mm
07:30 AM 36.2°F2.3°C 28.7°F-1.8°C 74% 4.6 mph SE7.4 kmh SE 6.9 mph11.1 kmh 29.48 in998.3 mb - 0.00 in0.0 mm 0.00 in0.0 mm
07:40 AM 36.4°F2.4°C 28.9°F-1.7°C 74% 5.8 mph SE9.3 kmh SE 15.0 mph24.1 kmh 29.48 in998.3 mb - 0.00 in0.0 mm 0.00 in0.0 mm
07:50 AM 36.6°F2.6°C 29.1°F-1.6°C 74% 9.2 mph SE14.8 kmh SE 16.1 mph25.9 kmh 29.48 in998.3 mb - 0.00 in0.0 mm 0.00 in0.0 mm
08:00 AM 36.4°F2.4°C 29.2°F-1.6°C 75% 9.2 mph SE14.8 kmh SE 12.7 mph20.4 kmh 29.48 in998.3 mb - 0.00 in0.0 mm 0.00 in0.0 mm
08:10 AM 36.3°F2.4°C 29.5°F-1.4°C 76% 10.4 mph SE16.7 kmh SE 16.1 mph25.9 kmh 29.47 in998.0 mb - 0.00 in0.0 mm 0.00 in0.0 mm
08:20 AM 36.2°F2.3°C 29.7°F-1.3°C 77% 9.2 mph SE14.8 kmh SE 11.5 mph18.5 kmh 29.47 in998.0 mb - 0.01 in0.3 mm 0.01 in0.3 mm
08:30 AM 36.4°F2.4°C 29.9°F-1.2°C 77% 6.9 mph SE11.1 kmh SE 10.4 mph16.7 kmh 29.48 in998.3 mb - 0.00 in0.0 mm 0.01 in0.3 mm
08:40 AM 36.4°F2.4°C 29.8°F-1.2°C 77% 11.5 mph SE18.5 kmh SE 17.3 mph27.8 kmh 29.48 in998.3 mb - 0.00 in0.0 mm 0.01 in0.3 mm
08:50 AM 36.1°F2.3°C 29.9°F-1.2°C 78% 6.9 mph SE11.1 kmh SE 11.5 mph18.5 kmh 29.49 in998.6 mb - 0.00 in0.0 mm 0.01 in0.3 mm
09:00 AM 35.7°F2.1°C 29.8°F-1.2°C 79% 3.5 mph SE5.6 kmh SE 6.9 mph11.1 kmh 29.49 in998.6 mb - 0.00 in0.0 mm 0.01 in0.3 mm
09:10 AM 35.5°F1.9°C 29.9°F-1.2°C 80% 3.5 mph SE5.6 kmh SE 6.9 mph11.1 kmh 29.49 in998.6 mb - 0.00 in0.0 mm 0.01 in0.3 mm
09:20 AM 35.1°F1.7°C 29.9°F-1.2°C 81% 2.3 mph SE3.7 kmh SE 11.5 mph18.5 kmh 29.49 in998.6 mb - 0.00 in0.0 mm 0.01 in0.3 mm
09:30 AM 34.9°F1.6°C 30.0°F-1.1°C 82% 2.3 mph SSE3.7 kmh SSE 3.5 mph5.6 kmh 29.50 in999.0 mb - 0.00 in0.0 mm 0.01 in0.3 mm
09:40 AM 34.7°F1.5°C 30.1°F-1.1°C 83% Calm Calm 2.3 mph3.7 kmh 29.50 in999.0 mb - 0.00 in0.0 mm 0.01 in0.3 mm
09:50 AM 34.6°F1.4°C 30.3°F-0.9°C 84% 1.2 mph S1.9 kmh S 3.5 mph5.6 kmh 29.50 in999.0 mb - 0.00 in0.0 mm 0.01 in0.3 mm
10:00 AM 34.6°F1.4°C 30.6°F-0.8°C 85% 1.2 mph SE1.9 kmh SE 3.5 mph5.6 kmh 29.50 in999.0 mb - 0.00 in0.0 mm 0.01 in0.3 mm
10:10 AM 34.6°F1.4°C 30.8°F-0.7°C 86% 2.3 mph ESE3.7 kmh ESE 3.5 mph5.6 kmh 29.49 in998.6 mb - 0.00 in0.0 mm 0.01 in0.3 mm
10:20 AM 34.6°F1.4°C 30.9°F-0.6°C 86% Calm Calm -- 29.49 in998.6 mb - 0.01 in0.3 mm 0.02 in0.5 mm
10:30 AM 34.7°F1.5°C 31.2°F-0.4°C 87% 1.2 mph SSE1.9 kmh SSE 3.5 mph5.6 kmh 29.49 in998.6 mb - 0.01 in0.3 mm 0.02 in0.5 mm
10:40 AM 35.0°F1.7°C 31.5°F-0.3°C 87% 2.3 mph SE3.7 kmh SE 5.8 mph9.3 kmh 29.49 in998.6 mb - 0.01 in0.3 mm 0.02 in0.5 mm
10:50 AM 35.2°F1.8°C 31.7°F-0.2°C 87% 3.5 mph SE5.6 kmh SE 4.6 mph7.4 kmh 29.49 in998.6 mb - 0.00 in0.0 mm 0.02 in0.5 mm
11:00 AM 35.4°F1.9°C 31.9°F-0.1°C 87% 3.5 mph SE5.6 kmh SE 3.5 mph5.6 kmh 29.50 in999.0 mb - 0.01 in0.3 mm 0.03 in0.8 mm
11:10 AM 35.6°F2.0°C 31.8°F-0.1°C 86% Calm Calm -- 29.50 in999.0 mb - 0.01 in0.3 mm 0.04 in1.0 mm
11:20 AM 35.8°F2.1°C 32.0°F0.0°C 86% Calm Calm -- 29.49 in998.6 mb - 0.00 in0.0 mm 0.04 in1.0 mm
11:30 AM 35.9°F2.2°C 32.1°F0.1°C 86% Calm Calm -- 29.49 in998.6 mb - 0.00 in0.0 mm 0.04 in1.0 mm
11:40 AM 35.9°F2.2°C 32.4°F0.2°C 87% Calm Calm 2.3 mph3.7 kmh 29.49 in998.6 mb - 0.01 in0.3 mm 0.05 in1.3 mm
11:50 AM 35.9°F2.2°C 32.4°F0.2°C 87% 1.2 mph E1.9 kmh E 1.2 mph1.9 kmh 29.49 in998.6 mb - 0.00 in0.0 mm 0.05 in1.3 mm
12:00 PM 36.0°F2.2°C 32.2°F0.1°C 86% 1.2 mph ESE1.9 kmh ESE 8.1 mph13.0 kmh 29.48 in998.3 mb - 0.01 in0.3 mm 0.06 in1.5 mm
12:10 PM 36.2°F2.3°C 32.4°F0.2°C 86% 4.6 mph SE7.4 kmh SE 5.8 mph9.3 kmh 29.48 in998.3 mb - 0.00 in0.0 mm 0.06 in1.5 mm
12:20 PM 36.6°F2.6°C 32.5°F0.3°C 85% 5.8 mph SE9.3 kmh SE 6.9 mph11.1 kmh 29.47 in998.0 mb - 0.00 in0.0 mm 0.06 in1.5 mm
12:30 PM 37.0°F2.8°C 32.6°F0.3°C 84% 4.6 mph E7.4 kmh E 6.9 mph11.1 kmh 29.47 in998.0 mb - 0.01 in0.3 mm 0.06 in1.5 mm
12:40 PM 37.0°F2.8°C 32.0°F0.0°C 82% 6.9 mph SE11.1 kmh SE 10.4 mph16.7 kmh 29.46 in997.6 mb - 0.00 in0.0 mm 0.06 in1.5 mm
12:50 PM 37.1°F2.8°C 32.1°F0.1°C 82% 5.8 mph SE9.3 kmh SE 10.4 mph16.7 kmh 29.46 in997.6 mb - 0.00 in0.0 mm 0.06 in1.5 mm
01:00 PM 37.2°F2.9°C 31.9°F-0.1°C 81% 1.2 mph ESE1.9 kmh ESE 4.6 mph7.4 kmh 29.46 in997.6 mb - 0.01 in0.3 mm 0.07 in1.8 mm
01:10 PM 37.4°F3.0°C 31.8°F-0.1°C 80% 1.2 mph SE1.9 kmh SE 3.5 mph5.6 kmh 29.45 in997.3 mb - 0.00 in0.0 mm 0.07 in1.8 mm
01:20 PM 37.6°F3.1°C 32.0°F0.0°C 80% 1.2 mph SE1.9 kmh SE 3.5 mph5.6 kmh 29.45 in997.3 mb - 0.00 in0.0 mm 0.07 in1.8 mm
01:30 PM 37.9°F3.3°C 32.3°F0.2°C 80% 2.3 mph SSE3.7 kmh SSE 6.9 mph11.1 kmh 29.46 in997.6 mb - 0.00 in0.0 mm 0.07 in1.8 mm
01:40 PM 38.0°F3.3°C 32.1°F0.1°C 79% Calm Calm -- 29.45 in997.3 mb - 0.00 in0.0 mm 0.07 in1.8 mm
01:50 PM 38.2°F3.4°C 32.3°F0.2°C 79% 1.2 mph S1.9 kmh S 3.5 mph5.6 kmh 29.45 in997.3 mb - 0.00 in0.0 mm 0.07 in1.8 mm
02:00 PM 38.3°F3.5°C 32.4°F0.2°C 79% 1.2 mph SSE1.9 kmh SSE 3.5 mph5.6 kmh 29.46 in997.6 mb - 0.00 in0.0 mm 0.07 in1.8 mm
02:10 PM 38.4°F3.6°C 32.5°F0.3°C 79% 1.2 mph SE1.9 kmh SE 1.2 mph1.9 kmh 29.45 in997.3 mb - 0.00 in0.0 mm 0.07 in1.8 mm
02:20 PM 38.4°F3.6°C 32.1°F0.1°C 78% Calm Calm -- 29.45 in997.3 mb - 0.00 in0.0 mm 0.07 in1.8 mm
02:30 PM 38.4°F3.6°C 32.1°F0.1°C 78% 2.3 mph SE3.7 kmh SE 3.5 mph5.6 kmh 29.45 in997.3 mb - 0.00 in0.0 mm 0.07 in1.8 mm
02:40 PM 38.5°F3.6°C 32.2°F0.1°C 78% Calm Calm -- 29.45 in997.3 mb - 0.01 in0.3 mm 0.08 in2.0 mm
02:50 PM 38.3°F3.5°C 32.4°F0.2°C 79% 2.3 mph S3.7 kmh S 4.6 mph7.4 kmh 29.45 in997.3 mb - 0.00 in0.0 mm 0.08 in2.0 mm
03:00 PM 38.3°F3.5°C 32.7°F0.4°C 80% Calm Calm -- 29.45 in997.3 mb - 0.00 in0.0 mm 0.08 in2.0 mm
03:10 PM 38.2°F3.4°C 32.9°F0.5°C 81% Calm Calm 3.5 mph5.6 kmh 29.45 in997.3 mb - 0.00 in0.0 mm 0.08 in2.0 mm
03:20 PM 38.2°F3.4°C 33.2°F0.7°C 82% Calm Calm -- 29.45 in997.3 mb - 0.00 in0.0 mm 0.08 in2.0 mm
03:30 PM 38.2°F3.4°C 33.5°F0.8°C 83% 1.2 mph S1.9 kmh S 2.3 mph3.7 kmh 29.44 in997.0 mb - 0.00 in0.0 mm 0.08 in2.0 mm
03:40 PM 38.0°F3.3°C 33.3°F0.7°C 83% Calm Calm 4.6 mph7.4 kmh 29.44 in997.0 mb - 0.00 in0.0 mm 0.08 in2.0 mm
03:50 PM 37.9°F3.3°C 33.2°F0.7°C 83% 1.2 mph SSE1.9 kmh SSE 2.3 mph3.7 kmh 29.44 in997.0 mb - 0.00 in0.0 mm 0.08 in2.0 mm
04:00 PM 38.0°F3.3°C 33.3°F0.7°C 83% 1.2 mph SSE1.9 kmh SSE 3.5 mph5.6 kmh 29.43 in996.6 mb - 0.00 in0.0 mm 0.08 in2.0 mm
04:10 PM 38.0°F3.3°C 33.3°F0.7°C 83% Calm Calm -- 29.43 in996.6 mb - 0.00 in0.0 mm 0.08 in2.0 mm
04:20 PM 37.9°F3.3°C 33.5°F0.8°C 84% 1.2 mph SSW1.9 kmh SSW 1.2 mph1.9 kmh 29.43 in996.6 mb - 0.00 in0.0 mm 0.08 in2.0 mm
04:30 PM 37.6°F3.1°C 33.2°F0.7°C 84% Calm Calm 1.2 mph1.9 kmh 29.43 in996.6 mb - 0.00 in0.0 mm 0.08 in2.0 mm
04:40 PM 37.3°F2.9°C 33.2°F0.7°C 85% Calm Calm -- 29.43 in996.6 mb - 0.00 in0.0 mm 0.08 in2.0 mm
04:50 PM 37.0°F2.8°C 33.2°F0.7°C 86% Calm Calm -- 29.43 in996.6 mb - 0.00 in0.0 mm 0.08 in2.0 mm
05:00 PM 36.8°F2.7°C 33.0°F0.6°C 86% Calm Calm -- 29.43 in996.6 mb - 0.01 in0.3 mm 0.09 in2.3 mm
05:10 PM 36.6°F2.6°C 33.1°F0.6°C 87% Calm Calm -- 29.43 in996.6 mb - 0.00 in0.0 mm 0.09 in2.3 mm
05:20 PM 36.5°F2.5°C 33.0°F0.6°C 87% Calm Calm -- 29.43 in996.6 mb - 0.00 in0.0 mm 0.09 in2.3 mm
05:30 PM 36.2°F2.3°C 33.0°F0.6°C 88% Calm Calm -- 29.43 in996.6 mb - 0.00 in0.0 mm 0.09 in2.3 mm
05:40 PM 36.0°F2.2°C 32.8°F0.4°C 88% Calm Calm -- 29.43 in996.6 mb - 0.00 in0.0 mm 0.09 in2.3 mm
05:50 PM 35.8°F2.1°C 32.9°F0.5°C 89% Calm Calm -- 29.43 in996.6 mb - 0.00 in0.0 mm 0.09 in2.3 mm
06:00 PM 35.7°F2.1°C 32.8°F0.4°C 89% Calm Calm -- 29.42 in996.3 mb - 0.00 in0.0 mm 0.09 in2.3 mm
06:10 PM 35.7°F2.1°C 32.8°F0.4°C 89% Calm Calm -- 29.42 in996.3 mb - 0.00 in0.0 mm 0.09 in2.3 mm
06:20 PM 35.7°F2.1°C 32.8°F0.4°C 89% Calm Calm -- 29.41 in995.9 mb - 0.00 in0.0 mm 0.09 in2.3 mm
06:30 PM 35.6°F2.0°C 32.7°F0.4°C 89% Calm Calm -- 29.42 in996.3 mb - 0.00 in0.0 mm 0.09 in2.3 mm
06:40 PM 35.6°F2.0°C 33.0°F0.6°C 90% Calm Calm -- 29.41 in995.9 mb - 0.00 in0.0 mm 0.09 in2.3 mm
06:50 PM 35.6°F2.0°C 32.9°F0.5°C 90% Calm Calm -- 29.41 in995.9 mb - 0.00 in0.0 mm 0.09 in2.3 mm
07:00 PM 35.4°F1.9°C 32.8°F0.4°C 90% Calm Calm 2.3 mph3.7 kmh 29.41 in995.9 mb - 0.00 in0.0 mm 0.09 in2.3 mm
07:10 PM 35.4°F1.9°C 32.8°F0.4°C 90% 1.2 mph WSW1.9 kmh WSW 2.3 mph3.7 kmh 29.41 in995.9 mb - 0.00 in0.0 mm 0.09 in2.3 mm
07:20 PM 35.6°F2.0°C 32.7°F0.4°C 89% 1.2 mph SSE1.9 kmh SSE 3.5 mph5.6 kmh 29.41 in995.9 mb - 0.00 in0.0 mm 0.09 in2.3 mm
07:30 PM 36.1°F2.3°C 32.9°F0.5°C 88% 3.5 mph SSE5.6 kmh SSE 4.6 mph7.4 kmh 29.41 in995.9 mb - 0.00 in0.0 mm 0.09 in2.3 mm
07:40 PM 36.5°F2.5°C 32.7°F0.4°C 86% Calm Calm 2.3 mph3.7 kmh 29.40 in995.6 mb - 0.00 in0.0 mm 0.09 in2.3 mm
07:50 PM 36.7°F2.6°C 32.0°F0.0°C 83% 2.3 mph SE3.7 kmh SE 4.6 mph7.4 kmh 29.40 in995.6 mb - 0.00 in0.0 mm 0.09 in2.3 mm
08:00 PM 36.5°F2.5°C 31.6°F-0.2°C 82% 6.9 mph SE11.1 kmh SE 16.1 mph25.9 kmh 29.39 in995.3 mb - 0.00 in0.0 mm 0.09 in2.3 mm
08:10 PM 36.6°F2.6°C 31.3°F-0.4°C 81% 8.1 mph SE13.0 kmh SE 10.4 mph16.7 kmh 29.39 in995.3 mb - 0.00 in0.0 mm 0.09 in2.3 mm
08:20 PM 36.8°F2.7°C 31.2°F-0.4°C 80% 3.5 mph SSE5.6 kmh SSE 3.5 mph5.6 kmh 29.39 in995.3 mb - 0.00 in0.0 mm 0.09 in2.3 mm
08:30 PM 36.9°F2.7°C 31.0°F-0.6°C 79% 3.5 mph S5.6 kmh S 3.5 mph5.6 kmh 29.39 in995.3 mb - 0.00 in0.0 mm 0.09 in2.3 mm
08:40 PM 36.9°F2.7°C 30.7°F-0.7°C 78% 2.3 mph S3.7 kmh S 4.6 mph7.4 kmh 29.38 in994.9 mb - 0.00 in0.0 mm 0.09 in2.3 mm
08:50 PM 36.8°F2.7°C 30.6°F-0.8°C 78% Calm Calm -- 29.38 in994.9 mb - 0.00 in0.0 mm 0.09 in2.3 mm
09:00 PM 36.8°F2.7°C 30.6°F-0.8°C 78% 3.5 mph SSE5.6 kmh SSE 4.6 mph7.4 kmh 29.38 in994.9 mb - 0.00 in0.0 mm 0.09 in2.3 mm
09:10 PM 36.8°F2.7°C 30.3°F-0.9°C 77% 1.2 mph SE1.9 kmh SE 3.5 mph5.6 kmh 29.38 in994.9 mb - 0.00 in0.0 mm 0.09 in2.3 mm
09:20 PM 36.9°F2.7°C 30.4°F-0.9°C 77% 1.2 mph SE1.9 kmh SE 3.5 mph5.6 kmh 29.37 in994.6 mb - 0.00 in0.0 mm 0.09 in2.3 mm
09:30 PM 36.9°F2.7°C 30.4°F-0.9°C 77% 1.2 mph WSW1.9 kmh WSW 3.5 mph5.6 kmh 29.38 in994.9 mb - 0.00 in0.0 mm 0.09 in2.3 mm
09:40 PM 36.7°F2.6°C 30.5°F-0.8°C 78% 1.2 mph WNW1.9 kmh WNW 1.2 mph1.9 kmh 29.38 in994.9 mb - 0.00 in0.0 mm 0.09 in2.3 mm
09:50 PM 36.8°F2.7°C 30.6°F-0.8°C 78% Calm Calm -- 29.38 in994.9 mb - 0.00 in0.0 mm 0.09 in2.3 mm
10:00 PM 36.7°F2.6°C 30.2°F-1.0°C 77% Calm Calm -- 29.38 in994.9 mb - 0.00 in0.0 mm 0.09 in2.3 mm
10:10 PM 36.6°F2.6°C 30.4°F-0.9°C 78% Calm Calm 2.3 mph3.7 kmh 29.38 in994.9 mb - 0.00 in0.0 mm 0.09 in2.3 mm
10:20 PM 36.5°F2.5°C 30.3°F-0.9°C 78% Calm Calm -- 29.39 in995.3 mb - 0.00 in0.0 mm 0.09 in2.3 mm
10:30 PM 36.2°F2.3°C 30.3°F-0.9°C 79% Calm Calm -- 29.39 in995.3 mb - 0.00 in0.0 mm 0.09 in2.3 mm
10:40 PM 35.5°F1.9°C 30.3°F-0.9°C 81% Calm Calm -- 29.39 in995.3 mb - 0.00 in0.0 mm 0.09 in2.3 mm
10:50 PM 35.0°F1.7°C 30.4°F-0.9°C 83% Calm Calm -- 29.38 in994.9 mb - 0.00 in0.0 mm 0.09 in2.3 mm
11:00 PM 34.6°F1.4°C 30.3°F-0.9°C 84% Calm Calm -- 29.38 in994.9 mb - 0.00 in0.0 mm 0.09 in2.3 mm
11:10 PM 34.4°F1.3°C 30.4°F-0.9°C 85% Calm Calm -- 29.38 in994.9 mb - 0.00 in0.0 mm 0.09 in2.3 mm
11:20 PM 34.2°F1.2°C 30.4°F-0.9°C 86% Calm Calm -- 29.37 in994.6 mb - 0.00 in0.0 mm 0.09 in2.3 mm
11:30 PM 34.0°F1.1°C 30.5°F-0.8°C 87% Calm Calm -- 29.37 in994.6 mb - 0.00 in0.0 mm 0.09 in2.3 mm
11:40 PM 33.8°F1.0°C 30.3°F-0.9°C 87% Calm Calm -- 29.36 in994.2 mb - 0.00 in0.0 mm 0.09 in2.3 mm
11:50 PM 33.7°F0.9°C 30.5°F-0.8°C 88% Calm Calm -- 29.35 in993.9 mb - 0.00 in0.0 mm 0.09 in2.3 mm